sensor_id;sensor_type;location;lat;lon;timestamp;temperature;humidity
9768;DHT22;4923;52.520;13.494;2023-06-01T00:01:53;17.00;1.00
9768;DHT22;4923;52.520;13.494;2023-06-01T00:04:40;16.90;1.00
9768;DHT22;4923;52.520;13.494;2023-06-01T00:07:28;16.90;1.00
9768;DHT22;4923;52.520;13.494;2023-06-01T00:10:18;16.90;1.00
9768;DHT22;4923;52.520;13.494;2023-06-01T00:13:05;16.90;1.00
9768;DHT22;4923;52.520;13.494;2023-06-01T00:15:52;16.80;1.00
9768;DHT22;4923;52.520;13.494;2023-06-01T00:18:39;16.80;1.00
9768;DHT22;4923;52.520;13.494;2023-06-01T00:21:27;16.70;1.00
9768;DHT22;4923;52.520;13.494;2023-06-01T00:24:15;16.60;1.00
9768;DHT22;4923;52.520;13.494;2023-06-01T00:27:02;16.60;1.00
9768;DHT22;4923;52.520;13.494;2023-06-01T00:29:49;16.50;1.00
9768;DHT22;4923;52.520;13.494;2023-06-01T00:32:36;16.50;1.00
9768;DHT22;4923;52.520;13.494;2023-06-01T00:35:23;16.40;1.00
9768;DHT22;4923;52.520;13.494;2023-06-01T00:38:10;16.30;1.00
9768;DHT22;4923;52.520;13.494;2023-06-01T00:40:58;16.30;1.00
9768;DHT22;4923;52.520;13.494;2023-06-01T00:43:45;16.20;1.00
9768;DHT22;4923;52.520;13.494;2023-06-01T00:46:32;16.20;1.00
9768;DHT22;4923;52.520;13.494;2023-06-01T00:49:19;16.20;1.00
9768;DHT22;4923;52.520;13.494;2023-06-01T00:52:07;16.10;1.00
9768;DHT22;4923;52.520;13.494;2023-06-01T00:54:54;16.10;1.00
9768;DHT22;4923;52.520;13.494;2023-06-01T00:57:43;16.00;1.00
9768;DHT22;4923;52.520;13.494;2023-06-01T01:00:30;16.00;1.00
9768;DHT22;4923;52.520;13.494;2023-06-01T01:03:17;16.00;1.00
9768;DHT22;4923;52.520;13.494;2023-06-01T01:06:09;15.90;1.00
9768;DHT22;4923;52.520;13.494;2023-06-01T01:09:10;15.90;1.00
9768;DHT22;4923;52.520;13.494;2023-06-01T01:12:07;15.70;1.00
9768;DHT22;4923;52.520;13.494;2023-06-01T01:15:01;15.70;1.00
9768;DHT22;4923;52.520;13.494;2023-06-01T01:18:05;15.70;1.00
9768;DHT22;4923;52.520;13.494;2023-06-01T01:20:59;15.60;1.00
9768;DHT22;4923;52.520;13.494;2023-06-01T01:24:01;15.50;1.00
9768;DHT22;4923;52.520;13.494;2023-06-01T01:27:01;15.40;1.00
9768;DHT22;4923;52.520;13.494;2023-06-01T01:29:54;15.30;1.00
9768;DHT22;4923;52.520;13.494;2023-06-01T01:32:45;15.40;1.00
9768;DHT22;4923;52.520;13.494;2023-06-01T01:35:33;15.30;1.00
9768;DHT22;4923;52.520;13.494;2023-06-01T01:38:20;15.30;1.00
9768;DHT22;4923;52.520;13.494;2023-06-01T01:41:07;15.30;1.00
9768;DHT22;4923;52.520;13.494;2023-06-01T01:43:54;15.20;1.00
9768;DHT22;4923;52.520;13.494;2023-06-01T01:46:52;15.20;1.00
9768;DHT22;4923;52.520;13.494;2023-06-01T01:49:42;15.10;1.00
9768;DHT22;4923;52.520;13.494;2023-06-01T01:52:32;15.10;1.00
9768;DHT22;4923;52.520;13.494;2023-06-01T01:55:20;15.20;1.00
9768;DHT22;4923;52.520;13.494;2023-06-01T01:58:09;15.10;1.00
9768;DHT22;4923;52.520;13.494;2023-06-01T02:00:57;15.10;1.00
9768;DHT22;4923;52.520;13.494;2023-06-01T02:03:45;15.00;1.00
9768;DHT22;4923;52.520;13.494;2023-06-01T02:06:33;15.00;1.00
9768;DHT22;4923;52.520;13.494;2023-06-01T02:09:20;14.90;1.00
9768;DHT22;4923;52.520;13.494;2023-06-01T02:12:07;14.90;1.00
9768;DHT22;4923;52.520;13.494;2023-06-01T02:14:54;14.90;1.00
9768;DHT22;4923;52.520;13.494;2023-06-01T02:17:41;14.80;1.00
9768;DHT22;4923;52.520;13.494;2023-06-01T02:20:30;14.70;1.00
9768;DHT22;4923;52.520;13.494;2023-06-01T02:23:16;14.60;1.00
9768;DHT22;4923;52.520;13.494;2023-06-01T02:26:03;14.60;1.00
9768;DHT22;4923;52.520;13.494;2023-06-01T02:28:50;14.50;1.00
9768;DHT22;4923;52.520;13.494;2023-06-01T02:31:37;14.50;1.00
9768;DHT22;4923;52.520;13.494;2023-06-01T02:34:24;14.40;1.00
9768;DHT22;4923;52.520;13.494;2023-06-01T02:37:12;14.40;1.00
9768;DHT22;4923;52.520;13.494;2023-06-01T02:39:59;14.30;1.00
9768;DHT22;4923;52.520;13.494;2023-06-01T02:42:46;14.30;1.00
9768;DHT22;4923;52.520;13.494;2023-06-01T02:45:33;14.20;1.00
9768;DHT22;4923;52.520;13.494;2023-06-01T02:48:20;14.20;1.00
9768;DHT22;4923;52.520;13.494;2023-06-01T02:51:07;14.10;1.00
9768;DHT22;4923;52.520;13.494;2023-06-01T02:53:55;14.10;1.00
9768;DHT22;4923;52.520;13.494;2023-06-01T02:56:42;14.10;1.00
9768;DHT22;4923;52.520;13.494;2023-06-01T02:59:29;14.10;1.00
9768;DHT22;4923;52.520;13.494;2023-06-01T03:02:16;14.00;1.00
9768;DHT22;4923;52.520;13.494;2023-06-01T03:05:03;14.00;1.00
9768;DHT22;4923;52.520;13.494;2023-06-01T03:07:51;13.90;1.00
9768;DHT22;4923;52.520;13.494;2023-06-01T03:10:39;13.90;1.00
9768;DHT22;4923;52.520;13.494;2023-06-01T03:13:27;13.90;1.00
9768;DHT22;4923;52.520;13.494;2023-06-01T03:16:14;13.80;1.00
9768;DHT22;4923;52.520;13.494;2023-06-01T03:19:02;13.80;1.00
9768;DHT22;4923;52.520;13.494;2023-06-01T03:21:49;13.80;1.00
9768;DHT22;4923;52.520;13.494;2023-06-01T03:24:36;13.70;1.00
9768;DHT22;4923;52.520;13.494;2023-06-01T03:27:28;13.70;1.00
9768;DHT22;4923;52.520;13.494;2023-06-01T03:30:15;13.60;1.00
9768;DHT22;4923;52.520;13.494;2023-06-01T03:33:02;13.60;1.00
9768;DHT22;4923;52.520;13.494;2023-06-01T03:35:48;13.50;1.00
9768;DHT22;4923;52.520;13.494;2023-06-01T03:38:36;13.50;1.00
9768;DHT22;4923;52.520;13.494;2023-06-01T03:41:23;13.40;1.00
9768;DHT22;4923;52.520;13.494;2023-06-01T03:44:11;13.40;1.00
9768;DHT22;4923;52.520;13.494;2023-06-01T03:46:58;13.50;1.00
9768;DHT22;4923;52.520;13.494;2023-06-01T03:49:45;13.60;1.00
9768;DHT22;4923;52.520;13.494;2023-06-01T03:52:33;13.80;1.00
9768;DHT22;4923;52.520;13.494;2023-06-01T03:55:20;14.10;1.00
9768;DHT22;4923;52.520;13.494;2023-06-01T03:58:08;14.20;1.00
9768;DHT22;4923;52.520;13.494;2023-06-01T04:00:56;14.30;1.00
9768;DHT22;4923;52.520;13.494;2023-06-01T04:03:44;14.50;1.00
9768;DHT22;4923;52.520;13.494;2023-06-01T04:06:31;14.80;1.00
9768;DHT22;4923;52.520;13.494;2023-06-01T04:09:21;14.80;1.00
9768;DHT22;4923;52.520;13.494;2023-06-01T04:12:09;14.70;1.00
9768;DHT22;4923;52.520;13.494;2023-06-01T04:14:56;14.90;1.00
9768;DHT22;4923;52.520;13.494;2023-06-01T04:17:44;15.00;1.00
9768;DHT22;4923;52.520;13.494;2023-06-01T04:20:31;15.30;1.00
9768;DHT22;4923;52.520;13.494;2023-06-01T04:23:18;15.30;1.00
9768;DHT22;4923;52.520;13.494;2023-06-01T04:26:05;15.10;1.00
9768;DHT22;4923;52.520;13.494;2023-06-01T04:28:52;15.20;1.00
9768;DHT22;4923;52.520;13.494;2023-06-01T04:31:42;15.40;1.00
9768;DHT22;4923;52.520;13.494;2023-06-01T04:34:30;15.50;1.00
9768;DHT22;4923;52.520;13.494;2023-06-01T04:37:17;15.70;1.00
9768;DHT22;4923;52.520;13.494;2023-06-01T04:40:07;15.80;1.00
9768;DHT22;4923;52.520;13.494;2023-06-01T04:42:55;15.90;1.00
9768;DHT22;4923;52.520;13.494;2023-06-01T04:45:42;15.70;1.00
9768;DHT22;4923;52.520;13.494;2023-06-01T04:48:29;15.60;1.00
9768;DHT22;4923;52.520;13.494;2023-06-01T04:51:19;15.40;1.00
9768;DHT22;4923;52.520;13.494;2023-06-01T04:54:06;14.70;1.00
9768;DHT22;4923;52.520;13.494;2023-06-01T04:56:53;14.10;1.00
9768;DHT22;4923;52.520;13.494;2023-06-01T04:59:40;13.60;1.00
9768;DHT22;4923;52.520;13.494;2023-06-01T05:02:29;13.20;1.00
9768;DHT22;4923;52.520;13.494;2023-06-01T05:05:16;13.00;1.00
9768;DHT22;4923;52.520;13.494;2023-06-01T05:08:04;12.90;1.00
9768;DHT22;4923;52.520;13.494;2023-06-01T05:10:51;12.80;1.00
9768;DHT22;4923;52.520;13.494;2023-06-01T05:13:38;12.60;1.00
9768;DHT22;4923;52.520;13.494;2023-06-01T05:16:25;12.50;1.00
9768;DHT22;4923;52.520;13.494;2023-06-01T05:19:12;12.50;1.00
9768;DHT22;4923;52.520;13.494;2023-06-01T05:21:59;12.50;1.00
9768;DHT22;4923;52.520;13.494;2023-06-01T05:24:48;12.60;1.00
9768;DHT22;4923;52.520;13.494;2023-06-01T05:27:35;13.70;1.00
9768;DHT22;4923;52.520;13.494;2023-06-01T05:30:22;14.10;1.00
9768;DHT22;4923;52.520;13.494;2023-06-01T05:33:09;14.30;1.00
9768;DHT22;4923;52.520;13.494;2023-06-01T05:35:56;14.90;1.00
9768;DHT22;4923;52.520;13.494;2023-06-01T05:38:43;14.40;1.00
9768;DHT22;4923;52.520;13.494;2023-06-01T05:41:31;13.90;1.00
9768;DHT22;4923;52.520;13.494;2023-06-01T05:44:18;13.20;1.00
9768;DHT22;4923;52.520;13.494;2023-06-01T05:47:05;12.90;1.00
9768;DHT22;4923;52.520;13.494;2023-06-01T05:49:52;12.60;1.00
9768;DHT22;4923;52.520;13.494;2023-06-01T05:52:39;12.70;1.00
9768;DHT22;4923;52.520;13.494;2023-06-01T05:55:28;12.70;1.00
9768;DHT22;4923;52.520;13.494;2023-06-01T05:58:16;12.60;1.00
9768;DHT22;4923;52.520;13.494;2023-06-01T06:01:03;12.70;1.00
9768;DHT22;4923;52.520;13.494;2023-06-01T06:03:50;12.90;1.00
9768;DHT22;4923;52.520;13.494;2023-06-01T06:06:37;12.80;1.00
9768;DHT22;4923;52.520;13.494;2023-06-01T06:09:24;13.00;1.00
9768;DHT22;4923;52.520;13.494;2023-06-01T06:12:11;13.00;1.00
9768;DHT22;4923;52.520;13.494;2023-06-01T06:14:59;13.00;1.00
9768;DHT22;4923;52.520;13.494;2023-06-01T06:17:46;12.80;1.00
9768;DHT22;4923;52.520;13.494;2023-06-01T06:20:33;12.90;1.00
9768;DHT22;4923;52.520;13.494;2023-06-01T06:23:20;13.20;1.00
9768;DHT22;4923;52.520;13.494;2023-06-01T06:26:07;13.40;1.00
9768;DHT22;4923;52.520;13.494;2023-06-01T06:28:54;13.40;1.00
9768;DHT22;4923;52.520;13.494;2023-06-01T06:31:42;13.30;1.00
9768;DHT22;4923;52.520;13.494;2023-06-01T06:34:29;13.40;1.00
9768;DHT22;4923;52.520;13.494;2023-06-01T06:37:20;13.00;1.00
9768;DHT22;4923;52.520;13.494;2023-06-01T06:40:08;13.50;1.00
9768;DHT22;4923;52.520;13.494;2023-06-01T06:42:55;13.60;1.00
9768;DHT22;4923;52.520;13.494;2023-06-01T06:45:42;13.80;1.00
9768;DHT22;4923;52.520;13.494;2023-06-01T06:48:30;14.10;1.00
9768;DHT22;4923;52.520;13.494;2023-06-01T06:51:17;13.80;1.00
9768;DHT22;4923;52.520;13.494;2023-06-01T06:54:04;13.60;1.00
9768;DHT22;4923;52.520;13.494;2023-06-01T06:56:52;13.80;1.00
9768;DHT22;4923;52.520;13.494;2023-06-01T06:59:39;14.00;1.00
9768;DHT22;4923;52.520;13.494;2023-06-01T07:02:26;13.80;1.00
9768;DHT22;4923;52.520;13.494;2023-06-01T07:05:14;13.80;1.00
9768;DHT22;4923;52.520;13.494;2023-06-01T07:08:01;13.60;1.00
9768;DHT22;4923;52.520;13.494;2023-06-01T07:10:48;13.50;1.00
9768;DHT22;4923;52.520;13.494;2023-06-01T07:13:35;14.10;1.00
9768;DHT22;4923;52.520;13.494;2023-06-01T07:16:23;14.20;1.00
9768;DHT22;4923;52.520;13.494;2023-06-01T07:19:12;14.10;1.00
9768;DHT22;4923;52.520;13.494;2023-06-01T07:22:00;14.30;1.00
9768;DHT22;4923;52.520;13.494;2023-06-01T07:24:47;14.10;1.00
9768;DHT22;4923;52.520;13.494;2023-06-01T07:27:34;14.60;1.00
9768;DHT22;4923;52.520;13.494;2023-06-01T07:30:22;14.70;1.00
9768;DHT22;4923;52.520;13.494;2023-06-01T07:33:09;14.80;1.00
9768;DHT22;4923;52.520;13.494;2023-06-01T07:35:56;14.70;1.00
9768;DHT22;4923;52.520;13.494;2023-06-01T07:38:45;15.10;1.00
9768;DHT22;4923;52.520;13.494;2023-06-01T07:41:32;15.50;1.00
9768;DHT22;4923;52.520;13.494;2023-06-01T07:44:19;15.40;1.00
9768;DHT22;4923;52.520;13.494;2023-06-01T07:47:06;15.10;1.00
9768;DHT22;4923;52.520;13.494;2023-06-01T07:49:53;15.10;1.00
9768;DHT22;4923;52.520;13.494;2023-06-01T07:52:41;15.30;1.00
9768;DHT22;4923;52.520;13.494;2023-06-01T07:55:29;15.60;1.00
9768;DHT22;4923;52.520;13.494;2023-06-01T07:58:16;15.40;1.00
9768;DHT22;4923;52.520;13.494;2023-06-01T08:01:03;15.30;1.00
9768;DHT22;4923;52.520;13.494;2023-06-01T08:03:50;15.40;1.00
9768;DHT22;4923;52.520;13.494;2023-06-01T08:06:37;15.30;1.00
9768;DHT22;4923;52.520;13.494;2023-06-01T08:09:24;15.10;1.00
9768;DHT22;4923;52.520;13.494;2023-06-01T08:12:13;14.70;1.00
9768;DHT22;4923;52.520;13.494;2023-06-01T08:15:01;14.90;1.00
9768;DHT22;4923;52.520;13.494;2023-06-01T08:17:49;14.90;1.00
9768;DHT22;4923;52.520;13.494;2023-06-01T08:20:37;14.70;1.00
9768;DHT22;4923;52.520;13.494;2023-06-01T08:23:24;14.60;1.00
9768;DHT22;4923;52.520;13.494;2023-06-01T08:26:11;14.80;1.00
9768;DHT22;4923;52.520;13.494;2023-06-01T08:28:59;14.70;1.00
9768;DHT22;4923;52.520;13.494;2023-06-01T08:31:46;15.10;1.00
9768;DHT22;4923;52.520;13.494;2023-06-01T08:34:33;15.10;1.00
9768;DHT22;4923;52.520;13.494;2023-06-01T08:37:19;15.30;1.00
9768;DHT22;4923;52.520;13.494;2023-06-01T08:40:07;15.40;1.00
9768;DHT22;4923;52.520;13.494;2023-06-01T08:42:57;15.60;1.00
9768;DHT22;4923;52.520;13.494;2023-06-01T08:45:47;16.00;1.00
9768;DHT22;4923;52.520;13.494;2023-06-01T08:48:34;16.00;1.00
9768;DHT22;4923;52.520;13.494;2023-06-01T08:51:22;15.80;1.00
9768;DHT22;4923;52.520;13.494;2023-06-01T08:54:09;16.10;1.00
9768;DHT22;4923;52.520;13.494;2023-06-01T08:56:58;16.30;1.00
9768;DHT22;4923;52.520;13.494;2023-06-01T08:59:46;16.30;1.00
9768;DHT22;4923;52.520;13.494;2023-06-01T09:02:34;16.50;1.00
9768;DHT22;4923;52.520;13.494;2023-06-01T09:05:21;16.20;1.00
9768;DHT22;4923;52.520;13.494;2023-06-01T09:08:08;16.60;1.00
9768;DHT22;4923;52.520;13.494;2023-06-01T09:10:55;16.90;1.00
9768;DHT22;4923;52.520;13.494;2023-06-01T09:13:42;16.70;1.00
9768;DHT22;4923;52.520;13.494;2023-06-01T09:16:35;16.60;1.00
9768;DHT22;4923;52.520;13.494;2023-06-01T09:19:24;16.80;1.00
9768;DHT22;4923;52.520;13.494;2023-06-01T09:22:38;17.10;1.00
9768;DHT22;4923;52.520;13.494;2023-06-01T09:25:26;16.90;1.00
9768;DHT22;4923;52.520;13.494;2023-06-01T09:28:13;17.30;1.00
9768;DHT22;4923;52.520;13.494;2023-06-01T09:31:00;17.00;1.00
9768;DHT22;4923;52.520;13.494;2023-06-01T09:33:59;16.70;1.00
9768;DHT22;4923;52.520;13.494;2023-06-01T09:36:49;16.90;1.00
9768;DHT22;4923;52.520;13.494;2023-06-01T09:39:36;17.00;1.00
9768;DHT22;4923;52.520;13.494;2023-06-01T09:42:32;17.20;1.00
9768;DHT22;4923;52.520;13.494;2023-06-01T09:45:20;16.90;1.00
9768;DHT22;4923;52.520;13.494;2023-06-01T09:48:18;16.90;1.00
9768;DHT22;4923;52.520;13.494;2023-06-01T09:51:05;17.30;1.00
9768;DHT22;4923;52.520;13.494;2023-06-01T09:54:02;17.40;1.00
9768;DHT22;4923;52.520;13.494;2023-06-01T09:56:49;17.40;1.00
9768;DHT22;4923;52.520;13.494;2023-06-01T09:59:41;17.70;1.00
9768;DHT22;4923;52.520;13.494;2023-06-01T10:02:29;17.70;1.00
9768;DHT22;4923;52.520;13.494;2023-06-01T10:05:17;17.90;1.00
9768;DHT22;4923;52.520;13.494;2023-06-01T10:08:04;17.90;1.00
9768;DHT22;4923;52.520;13.494;2023-06-01T10:10:52;17.70;1.00
9768;DHT22;4923;52.520;13.494;2023-06-01T10:13:40;17.70;1.00
9768;DHT22;4923;52.520;13.494;2023-06-01T10:16:27;17.90;1.00
9768;DHT22;4923;52.520;13.494;2023-06-01T10:19:14;18.20;1.00
9768;DHT22;4923;52.520;13.494;2023-06-01T10:22:02;17.80;1.00
9768;DHT22;4923;52.520;13.494;2023-06-01T10:24:50;17.80;1.00
9768;DHT22;4923;52.520;13.494;2023-06-01T10:27:51;17.80;1.00
9768;DHT22;4923;52.520;13.494;2023-06-01T10:30:39;18.40;1.00
9768;DHT22;4923;52.520;13.494;2023-06-01T10:33:53;18.30;1.00
9768;DHT22;4923;52.520;13.494;2023-06-01T10:37:13;18.30;1.00
9768;DHT22;4923;52.520;13.494;2023-06-01T10:40:11;18.10;1.00
9768;DHT22;4923;52.520;13.494;2023-06-01T10:43:06;18.30;1.00
9768;DHT22;4923;52.520;13.494;2023-06-01T10:45:54;18.50;1.00
9768;DHT22;4923;52.520;13.494;2023-06-01T10:48:51;18.90;1.00
9768;DHT22;4923;52.520;13.494;2023-06-01T10:51:39;18.90;1.00
9768;DHT22;4923;52.520;13.494;2023-06-01T10:54:30;18.90;1.00
9768;DHT22;4923;52.520;13.494;2023-06-01T10:57:21;18.90;1.00
9768;DHT22;4923;52.520;13.494;2023-06-01T11:00:15;18.80;1.00
9768;DHT22;4923;52.520;13.494;2023-06-01T11:03:04;18.60;1.00
9768;DHT22;4923;52.520;13.494;2023-06-01T11:05:51;18.70;1.00
9768;DHT22;4923;52.520;13.494;2023-06-01T11:08:52;18.80;1.00
9768;DHT22;4923;52.520;13.494;2023-06-01T11:11:59;18.80;1.00
9768;DHT22;4923;52.520;13.494;2023-06-01T11:15:10;19.10;1.00
9768;DHT22;4923;52.520;13.494;2023-06-01T11:21:28;19.50;1.00
9768;DHT22;4923;52.520;13.494;2023-06-01T11:24:16;19.80;1.00
9768;DHT22;4923;52.520;13.494;2023-06-01T11:27:06;19.50;1.00
9768;DHT22;4923;52.520;13.494;2023-06-01T11:29:53;19.50;1.00
9768;DHT22;4923;52.520;13.494;2023-06-01T11:32:41;19.70;1.00
9768;DHT22;4923;52.520;13.494;2023-06-01T11:35:28;19.90;1.00
9768;DHT22;4923;52.520;13.494;2023-06-01T11:38:16;20.10;1.00
9768;DHT22;4923;52.520;13.494;2023-06-01T11:41:04;19.80;1.00
9768;DHT22;4923;52.520;13.494;2023-06-01T11:43:55;19.60;1.00
9768;DHT22;4923;52.520;13.494;2023-06-01T11:46:56;19.90;1.00
9768;DHT22;4923;52.520;13.494;2023-06-01T11:49:43;20.00;1.00
9768;DHT22;4923;52.520;13.494;2023-06-01T11:52:33;20.30;1.00
9768;DHT22;4923;52.520;13.494;2023-06-01T11:55:21;19.90;1.00
9768;DHT22;4923;52.520;13.494;2023-06-01T11:58:08;19.80;1.00
9768;DHT22;4923;52.520;13.494;2023-06-01T12:00:57;19.90;1.00
9768;DHT22;4923;52.520;13.494;2023-06-01T12:03:45;19.70;1.00
9768;DHT22;4923;52.520;13.494;2023-06-01T12:06:33;19.80;1.00
9768;DHT22;4923;52.520;13.494;2023-06-01T12:09:21;19.90;1.00
9768;DHT22;4923;52.520;13.494;2023-06-01T12:12:10;19.90;1.00
9768;DHT22;4923;52.520;13.494;2023-06-01T12:14:57;19.90;1.00
9768;DHT22;4923;52.520;13.494;2023-06-01T12:17:48;20.10;1.00
9768;DHT22;4923;52.520;13.494;2023-06-01T12:20:36;20.50;1.00
9768;DHT22;4923;52.520;13.494;2023-06-01T12:23:23;20.40;1.00
9768;DHT22;4923;52.520;13.494;2023-06-01T12:26:11;20.30;1.00
9768;DHT22;4923;52.520;13.494;2023-06-01T12:28:59;20.60;1.00
9768;DHT22;4923;52.520;13.494;2023-06-01T12:31:52;20.40;1.00
9768;DHT22;4923;52.520;13.494;2023-06-01T12:34:41;20.50;1.00
9768;DHT22;4923;52.520;13.494;2023-06-01T12:37:33;20.60;1.00
9768;DHT22;4923;52.520;13.494;2023-06-01T12:40:21;20.80;1.00
9768;DHT22;4923;52.520;13.494;2023-06-01T12:43:17;20.40;1.00
9768;DHT22;4923;52.520;13.494;2023-06-01T12:46:06;20.20;1.00
9768;DHT22;4923;52.520;13.494;2023-06-01T12:48:54;20.40;1.00
9768;DHT22;4923;52.520;13.494;2023-06-01T12:51:41;20.80;1.00
9768;DHT22;4923;52.520;13.494;2023-06-01T12:54:28;21.00;1.00
9768;DHT22;4923;52.520;13.494;2023-06-01T12:57:15;21.10;1.00
9768;DHT22;4923;52.520;13.494;2023-06-01T13:00:02;21.10;1.00
9768;DHT22;4923;52.520;13.494;2023-06-01T13:02:52;20.80;1.00
9768;DHT22;4923;52.520;13.494;2023-06-01T13:05:41;20.80;1.00
9768;DHT22;4923;52.520;13.494;2023-06-01T13:08:28;20.60;1.00
9768;DHT22;4923;52.520;13.494;2023-06-01T13:11:15;20.70;1.00
9768;DHT22;4923;52.520;13.494;2023-06-01T13:14:02;20.80;1.00
9768;DHT22;4923;52.520;13.494;2023-06-01T13:16:49;20.90;1.00
9768;DHT22;4923;52.520;13.494;2023-06-01T13:19:38;21.10;1.00
9768;DHT22;4923;52.520;13.494;2023-06-01T13:22:24;21.30;1.00
9768;DHT22;4923;52.520;13.494;2023-06-01T13:25:13;21.20;1.00
9768;DHT22;4923;52.520;13.494;2023-06-01T13:28:00;21.10;1.00
9768;DHT22;4923;52.520;13.494;2023-06-01T13:30:47;21.30;1.00
9768;DHT22;4923;52.520;13.494;2023-06-01T13:33:34;21.30;1.00
9768;DHT22;4923;52.520;13.494;2023-06-01T13:36:22;21.20;1.00
9768;DHT22;4923;52.520;13.494;2023-06-01T13:39:09;21.10;1.00
9768;DHT22;4923;52.520;13.494;2023-06-01T13:41:56;21.40;1.00
9768;DHT22;4923;52.520;13.494;2023-06-01T13:44:43;21.30;1.00
9768;DHT22;4923;52.520;13.494;2023-06-01T13:47:32;21.20;1.00
9768;DHT22;4923;52.520;13.494;2023-06-01T13:50:19;21.30;1.00
9768;DHT22;4923;52.520;13.494;2023-06-01T13:53:08;21.20;1.00
9768;DHT22;4923;52.520;13.494;2023-06-01T13:55:55;21.40;1.00
9768;DHT22;4923;52.520;13.494;2023-06-01T13:58:42;21.50;1.00
9768;DHT22;4923;52.520;13.494;2023-06-01T14:01:29;21.80;1.00
9768;DHT22;4923;52.520;13.494;2023-06-01T14:04:16;21.50;1.00
9768;DHT22;4923;52.520;13.494;2023-06-01T14:07:03;21.60;1.00
9768;DHT22;4923;52.520;13.494;2023-06-01T14:09:51;21.60;1.00
9768;DHT22;4923;52.520;13.494;2023-06-01T14:12:38;21.60;1.00
9768;DHT22;4923;52.520;13.494;2023-06-01T14:15:25;21.90;1.00
9768;DHT22;4923;52.520;13.494;2023-06-01T14:18:12;21.80;1.00
9768;DHT22;4923;52.520;13.494;2023-06-01T14:20:59;22.00;1.00
9768;DHT22;4923;52.520;13.494;2023-06-01T14:23:46;22.10;1.00
9768;DHT22;4923;52.520;13.494;2023-06-01T14:26:34;22.30;1.00
9768;DHT22;4923;52.520;13.494;2023-06-01T14:29:21;22.50;1.00
9768;DHT22;4923;52.520;13.494;2023-06-01T14:32:08;22.40;1.00
9768;DHT22;4923;52.520;13.494;2023-06-01T14:34:55;22.30;1.00
9768;DHT22;4923;52.520;13.494;2023-06-01T14:37:42;22.40;1.00
9768;DHT22;4923;52.520;13.494;2023-06-01T14:40:29;22.30;1.00
9768;DHT22;4923;52.520;13.494;2023-06-01T14:43:17;22.30;1.00
9768;DHT22;4923;52.520;13.494;2023-06-01T14:46:05;21.90;1.00
9768;DHT22;4923;52.520;13.494;2023-06-01T14:48:52;21.70;1.00
9768;DHT22;4923;52.520;13.494;2023-06-01T14:51:39;21.90;1.00
9768;DHT22;4923;52.520;13.494;2023-06-01T14:54:26;22.00;1.00
9768;DHT22;4923;52.520;13.494;2023-06-01T14:57:14;21.90;1.00
9768;DHT22;4923;52.520;13.494;2023-06-01T15:00:02;21.90;1.00
9768;DHT22;4923;52.520;13.494;2023-06-01T15:02:50;22.20;1.00
9768;DHT22;4923;52.520;13.494;2023-06-01T15:05:37;22.30;1.00
9768;DHT22;4923;52.520;13.494;2023-06-01T15:08:24;22.10;1.00
9768;DHT22;4923;52.520;13.494;2023-06-01T15:11:12;22.10;1.00
9768;DHT22;4923;52.520;13.494;2023-06-01T15:14:00;22.00;1.00
9768;DHT22;4923;52.520;13.494;2023-06-01T15:16:48;22.10;1.00
9768;DHT22;4923;52.520;13.494;2023-06-01T15:19:35;22.10;1.00
9768;DHT22;4923;52.520;13.494;2023-06-01T15:22:22;22.00;1.00
9768;DHT22;4923;52.520;13.494;2023-06-01T15:25:09;22.00;1.00
9768;DHT22;4923;52.520;13.494;2023-06-01T15:27:56;22.10;1.00
9768;DHT22;4923;52.520;13.494;2023-06-01T15:30:42;22.20;1.00
9768;DHT22;4923;52.520;13.494;2023-06-01T15:33:31;22.00;1.00
9768;DHT22;4923;52.520;13.494;2023-06-01T15:36:17;22.10;1.00
9768;DHT22;4923;52.520;13.494;2023-06-01T15:39:04;22.10;1.00
9768;DHT22;4923;52.520;13.494;2023-06-01T15:41:51;22.20;1.00
9768;DHT22;4923;52.520;13.494;2023-06-01T15:44:39;22.10;1.00
9768;DHT22;4923;52.520;13.494;2023-06-01T15:47:27;22.00;1.00
9768;DHT22;4923;52.520;13.494;2023-06-01T15:50:15;21.70;1.00
9768;DHT22;4923;52.520;13.494;2023-06-01T15:53:02;21.70;1.00
9768;DHT22;4923;52.520;13.494;2023-06-01T15:55:49;21.70;1.00
9768;DHT22;4923;52.520;13.494;2023-06-01T15:58:36;21.60;1.00
9768;DHT22;4923;52.520;13.494;2023-06-01T16:01:23;21.70;1.00
9768;DHT22;4923;52.520;13.494;2023-06-01T16:04:10;21.60;1.00
9768;DHT22;4923;52.520;13.494;2023-06-01T16:06:58;21.70;1.00
9768;DHT22;4923;52.520;13.494;2023-06-01T16:09:45;21.50;1.00
9768;DHT22;4923;52.520;13.494;2023-06-01T16:12:32;21.50;1.00
9768;DHT22;4923;52.520;13.494;2023-06-01T16:15:19;21.40;1.00
9768;DHT22;4923;52.520;13.494;2023-06-01T16:18:05;21.40;1.00
9768;DHT22;4923;52.520;13.494;2023-06-01T16:20:52;21.40;1.00
9768;DHT22;4923;52.520;13.494;2023-06-01T16:23:41;21.30;1.00
9768;DHT22;4923;52.520;13.494;2023-06-01T16:26:28;21.30;1.00
9768;DHT22;4923;52.520;13.494;2023-06-01T16:29:15;21.30;1.00
9768;DHT22;4923;52.520;13.494;2023-06-01T16:32:02;21.30;1.00
9768;DHT22;4923;52.520;13.494;2023-06-01T16:34:48;21.40;1.00
9768;DHT22;4923;52.520;13.494;2023-06-01T16:37:36;21.40;1.00
9768;DHT22;4923;52.520;13.494;2023-06-01T16:40:24;21.30;1.00
9768;DHT22;4923;52.520;13.494;2023-06-01T16:43:11;21.50;1.00
9768;DHT22;4923;52.520;13.494;2023-06-01T16:46:01;22.00;1.00
9768;DHT22;4923;52.520;13.494;2023-06-01T16:48:48;22.70;1.00
9768;DHT22;4923;52.520;13.494;2023-06-01T16:51:35;23.70;1.00
9768;DHT22;4923;52.520;13.494;2023-06-01T16:54:22;24.10;1.00
9768;DHT22;4923;52.520;13.494;2023-06-01T16:57:10;24.70;1.00
9768;DHT22;4923;52.520;13.494;2023-06-01T16:59:57;24.80;1.00
9768;DHT22;4923;52.520;13.494;2023-06-01T17:02:44;25.20;1.00
9768;DHT22;4923;52.520;13.494;2023-06-01T17:05:31;25.10;1.00
9768;DHT22;4923;52.520;13.494;2023-06-01T17:08:19;24.60;1.00
9768;DHT22;4923;52.520;13.494;2023-06-01T17:11:06;24.70;1.00
9768;DHT22;4923;52.520;13.494;2023-06-01T17:13:54;24.70;1.00
9768;DHT22;4923;52.520;13.494;2023-06-01T17:16:41;24.30;1.00
9768;DHT22;4923;52.520;13.494;2023-06-01T17:19:28;24.40;1.00
9768;DHT22;4923;52.520;13.494;2023-06-01T17:22:15;25.00;1.00
9768;DHT22;4923;52.520;13.494;2023-06-01T17:25:02;24.70;1.00
9768;DHT22;4923;52.520;13.494;2023-06-01T17:27:52;24.40;1.00
9768;DHT22;4923;52.520;13.494;2023-06-01T17:30:40;24.50;1.00
9768;DHT22;4923;52.520;13.494;2023-06-01T17:33:27;24.70;1.00
9768;DHT22;4923;52.520;13.494;2023-06-01T17:36:14;24.70;1.00
9768;DHT22;4923;52.520;13.494;2023-06-01T17:39:01;24.40;1.00
9768;DHT22;4923;52.520;13.494;2023-06-01T17:41:48;24.60;1.00
9768;DHT22;4923;52.520;13.494;2023-06-01T17:44:35;24.60;1.00
9768;DHT22;4923;52.520;13.494;2023-06-01T17:47:23;24.60;1.00
9768;DHT22;4923;52.520;13.494;2023-06-01T17:50:10;23.80;1.00
9768;DHT22;4923;52.520;13.494;2023-06-01T17:52:57;24.30;1.00
9768;DHT22;4923;52.520;13.494;2023-06-01T17:55:44;23.90;1.00
9768;DHT22;4923;52.520;13.494;2023-06-01T17:58:31;23.80;1.00
9768;DHT22;4923;52.520;13.494;2023-06-01T18:01:18;24.10;1.00
9768;DHT22;4923;52.520;13.494;2023-06-01T18:04:06;24.40;1.00
9768;DHT22;4923;52.520;13.494;2023-06-01T18:06:53;24.00;1.00
9768;DHT22;4923;52.520;13.494;2023-06-01T18:09:40;23.70;1.00
9768;DHT22;4923;52.520;13.494;2023-06-01T18:12:27;23.90;1.00
9768;DHT22;4923;52.520;13.494;2023-06-01T18:15:14;23.70;1.00
9768;DHT22;4923;52.520;13.494;2023-06-01T18:18:01;23.50;1.00
9768;DHT22;4923;52.520;13.494;2023-06-01T18:20:49;23.40;1.00
9768;DHT22;4923;52.520;13.494;2023-06-01T18:23:36;23.00;1.00